SBI596Z UHBB-UELL
Flight info
| Callsign | SBI596Z |
|---|---|
| Flight time | 1h 4m |
| Altitude | 34000 |
| Route | RUNET2D RUNET B803 BADOM N620 NALEB B803 OKNOR L168 ORTEL ORTEL1H |
| Aircraft | A21N/M-SDE2E3FGHIRWXY/LB1 |
Departure
| Time | 2026-05-04 11:31 |
|---|---|
| Airport | Ignatyevo Airport (UHBB) |
Arrival
| Time | 2026-05-04 12:35 |
|---|---|
| Airport | Chulman Airport (UELL) |
| Time | Latitude | Longitude | Altitude | Speed | Heading |
|---|---|---|---|---|---|
| 2026-05-04 11:16 | 50.42332 | 127.40852 | 647 ft | 0 kts | 262° |
| 2026-05-04 11:22 | 50.42350 | 127.40974 | 647 ft | 2 kts | 229° |
| 2026-05-04 11:22 | 50.42363 | 127.40987 | 647 ft | 2 kts | 198° |
| 2026-05-04 11:23 | 50.42375 | 127.40990 | 647 ft | 0 kts | 171° |
| 2026-05-04 11:23 | 50.42382 | 127.40987 | 647 ft | 1 kts | 167° |
| 2026-05-04 11:24 | 50.42381 | 127.40987 | 647 ft | 0 kts | 167° |
| 2026-05-04 11:25 | 50.42376 | 127.40989 | 647 ft | 1 kts | 167° |
| 2026-05-04 11:25 | 50.42346 | 127.41000 | 647 ft | 7 kts | 167° |
| 2026-05-04 11:25 | 50.42291 | 127.41021 | 647 ft | 8 kts | 167° |
| 2026-05-04 11:26 | 50.42218 | 127.41176 | 647 ft | 10 kts | 78° |
| 2026-05-04 11:27 | 50.41981 | 127.41780 | 647 ft | 19 kts | 167° |
| 2026-05-04 11:28 | 50.41855 | 127.41822 | 647 ft | 18 kts | 169° |
| 2026-05-04 11:28 | 50.41730 | 127.41860 | 647 ft | 17 kts | 169° |
| 2026-05-04 11:28 | 50.41610 | 127.41897 | 647 ft | 17 kts | 169° |
| 2026-05-04 11:28 | 50.41494 | 127.41931 | 647 ft | 15 kts | 171° |
| 2026-05-04 11:29 | 50.41422 | 127.41913 | 647 ft | 10 kts | 197° |
| 2026-05-04 11:29 | 50.41375 | 127.41930 | 647 ft | 4 kts | 112° |
| 2026-05-04 11:29 | 50.41388 | 127.41972 | 646 ft | 4 kts | 19° |
| 2026-05-04 11:29 | 50.41405 | 127.41969 | 646 ft | 0 kts | 345° |
| 2026-05-04 11:31 | 50.45102 | 127.40747 | 1933 ft | 177 kts | 345° |
| 2026-05-04 11:33 | 50.55378 | 127.41067 | 4462 ft | 276 kts | 14° |
| 2026-05-04 11:33 | 50.57253 | 127.41876 | 5056 ft | 283 kts | 14° |
| 2026-05-04 11:33 | 50.59163 | 127.42685 | 5749 ft | 286 kts | 14° |
| 2026-05-04 11:34 | 50.61086 | 127.43494 | 6373 ft | 291 kts | 14° |
| 2026-05-04 11:34 | 50.63034 | 127.44303 | 7006 ft | 295 kts | 14° |
| 2026-05-04 11:34 | 50.65015 | 127.45132 | 7625 ft | 299 kts | 14° |
| 2026-05-04 11:34 | 50.67034 | 127.45981 | 8283 ft | 301 kts | 13° |
| 2026-05-04 11:35 | 50.69035 | 127.46808 | 8884 ft | 304 kts | 13° |
| 2026-05-04 11:35 | 50.71100 | 127.47667 | 9490 ft | 307 kts | 13° |
| 2026-05-04 11:35 | 50.73156 | 127.48510 | 10044 ft | 311 kts | 14° |
| 2026-05-04 11:35 | 50.75279 | 127.49392 | 10451 ft | 321 kts | 14° |
| 2026-05-04 11:36 | 50.77479 | 127.50307 | 10707 ft | 336 kts | 14° |
| 2026-05-04 11:36 | 50.79769 | 127.51261 | 10961 ft | 350 kts | 14° |
| 2026-05-04 11:36 | 50.82190 | 127.52273 | 11209 ft | 364 kts | 14° |
| 2026-05-04 11:36 | 50.84660 | 127.53305 | 11447 ft | 377 kts | 14° |
| 2026-05-04 11:37 | 50.87223 | 127.54374 | 11674 ft | 390 kts | 13° |
| 2026-05-04 11:37 | 50.89967 | 127.55014 | 11886 ft | 401 kts | 0° |
| 2026-05-04 11:37 | 50.92745 | 127.54653 | 12089 ft | 410 kts | 346° |
| 2026-05-04 11:37 | 50.95550 | 127.53494 | 12304 ft | 419 kts | 341° |
| 2026-05-04 11:38 | 50.98348 | 127.52141 | 12506 ft | 430 kts | 340° |
| 2026-05-04 11:38 | 51.01210 | 127.50737 | 12847 ft | 436 kts | 341° |
| 2026-05-04 11:38 | 51.04125 | 127.49329 | 13273 ft | 439 kts | 341° |
| 2026-05-04 11:38 | 51.07049 | 127.47936 | 13683 ft | 443 kts | 341° |
| 2026-05-04 11:39 | 51.10019 | 127.46536 | 14104 ft | 446 kts | 341° |
| 2026-05-04 11:39 | 51.12990 | 127.45142 | 14511 ft | 449 kts | 341° |
| 2026-05-04 11:40 | 51.31217 | 127.36594 | 16736 ft | 465 kts | 340° |
| 2026-05-04 11:41 | 51.34334 | 127.35126 | 17079 ft | 467 kts | 340° |
| 2026-05-04 11:41 | 51.37418 | 127.33673 | 17419 ft | 469 kts | 339° |
| 2026-05-04 11:41 | 51.40535 | 127.32201 | 17754 ft | 471 kts | 339° |
| 2026-05-04 11:41 | 51.43709 | 127.30699 | 18078 ft | 473 kts | 339° |
| 2026-05-04 11:42 | 51.46827 | 127.29222 | 18387 ft | 475 kts | 339° |
| 2026-05-04 11:42 | 51.49993 | 127.27719 | 18692 ft | 477 kts | 339° |
| 2026-05-04 11:42 | 51.53194 | 127.26199 | 18993 ft | 479 kts | 339° |
| 2026-05-04 11:42 | 51.56387 | 127.24679 | 19286 ft | 481 kts | 339° |
| 2026-05-04 11:43 | 51.59600 | 127.23148 | 19574 ft | 483 kts | 339° |
| 2026-05-04 11:43 | 51.62788 | 127.21626 | 19857 ft | 485 kts | 339° |
| 2026-05-04 11:43 | 51.66055 | 127.20068 | 20132 ft | 487 kts | 339° |
| 2026-05-04 11:43 | 51.69311 | 127.18761 | 20390 ft | 492 kts | 344° |
| 2026-05-04 11:44 | 51.72693 | 127.17869 | 20652 ft | 497 kts | 349° |
| 2026-05-04 11:44 | 51.76178 | 127.17419 | 20912 ft | 501 kts | 353° |
| 2026-05-04 11:44 | 51.79639 | 127.17194 | 21164 ft | 503 kts | 354° |
| 2026-05-04 11:44 | 51.83140 | 127.17028 | 21404 ft | 505 kts | 354° |
| 2026-05-04 11:45 | 51.86613 | 127.16865 | 21637 ft | 507 kts | 354° |
| 2026-05-04 11:45 | 51.90145 | 127.16684 | 21870 ft | 508 kts | 354° |
| 2026-05-04 11:45 | 51.93672 | 127.16489 | 22096 ft | 510 kts | 354° |
| 2026-05-04 11:45 | 51.97201 | 127.16284 | 22321 ft | 511 kts | 354° |
| 2026-05-04 11:46 | 52.00772 | 127.16071 | 22539 ft | 513 kts | 353° |
| 2026-05-04 11:46 | 52.04330 | 127.15855 | 22749 ft | 515 kts | 353° |
| 2026-05-04 11:46 | 52.07890 | 127.15637 | 22955 ft | 516 kts | 353° |
| 2026-05-04 11:46 | 52.11058 | 127.15444 | 23189 ft | 516 kts | 353° |
| 2026-05-04 11:47 | 52.14588 | 127.15229 | 23478 ft | 515 kts | 353° |
| 2026-05-04 11:47 | 52.18198 | 127.15009 | 23769 ft | 514 kts | 353° |
| 2026-05-04 11:47 | 52.21724 | 127.14792 | 24039 ft | 513 kts | 353° |
| 2026-05-04 11:47 | 52.25312 | 127.14571 | 24307 ft | 513 kts | 353° |
| 2026-05-04 11:48 | 52.28862 | 127.14351 | 24574 ft | 513 kts | 353° |
| 2026-05-04 11:48 | 52.32370 | 127.14133 | 24839 ft | 512 kts | 353° |
| 2026-05-04 11:48 | 52.35954 | 127.13909 | 25109 ft | 512 kts | 353° |
| 2026-05-04 11:48 | 52.39454 | 127.13690 | 25373 ft | 511 kts | 353° |
| 2026-05-04 11:49 | 52.43014 | 127.13470 | 25640 ft | 511 kts | 352° |
| 2026-05-04 11:49 | 52.46535 | 127.13294 | 25901 ft | 511 kts | 353° |
| 2026-05-04 11:49 | 52.50102 | 127.13171 | 26167 ft | 510 kts | 353° |
| 2026-05-04 11:49 | 52.53620 | 127.13065 | 26427 ft | 510 kts | 353° |
| 2026-05-04 11:50 | 52.57149 | 127.12955 | 26686 ft | 509 kts | 353° |
| 2026-05-04 11:50 | 52.60683 | 127.12840 | 26945 ft | 509 kts | 353° |
| 2026-05-04 11:50 | 52.64188 | 127.12721 | 27205 ft | 508 kts | 353° |
| 2026-05-04 11:50 | 52.67690 | 127.12599 | 27467 ft | 507 kts | 353° |
| 2026-05-04 11:51 | 52.71214 | 127.12473 | 27734 ft | 507 kts | 353° |
| 2026-05-04 11:51 | 52.74759 | 127.12347 | 28004 ft | 506 kts | 353° |
| 2026-05-04 11:51 | 52.78247 | 127.12221 | 28270 ft | 506 kts | 352° |
| 2026-05-04 11:51 | 52.81756 | 127.12096 | 28540 ft | 505 kts | 352° |
| 2026-05-04 11:52 | 52.85220 | 127.11974 | 28806 ft | 504 kts | 352° |
| 2026-05-04 11:52 | 52.88734 | 127.11854 | 29078 ft | 504 kts | 352° |
| 2026-05-04 11:52 | 52.92213 | 127.11736 | 29347 ft | 503 kts | 352° |
| 2026-05-04 11:52 | 52.95686 | 127.11616 | 29616 ft | 502 kts | 352° |
| 2026-05-04 11:53 | 52.99170 | 127.11491 | 29885 ft | 502 kts | 352° |
| 2026-05-04 11:53 | 53.02633 | 127.11362 | 30149 ft | 501 kts | 353° |
| 2026-05-04 11:53 | 53.06123 | 127.11231 | 30419 ft | 500 kts | 353° |
| 2026-05-04 11:53 | 53.09560 | 127.11105 | 30693 ft | 499 kts | 353° |
| 2026-05-04 11:55 | 53.32659 | 127.10298 | 33464 ft | 468 kts | 353° |
| 2026-05-04 11:56 | 53.39193 | 127.10047 | 33466 ft | 478 kts | 353° |
| 2026-05-04 11:56 | 53.45879 | 127.09802 | 33466 ft | 488 kts | 353° |
| 2026-05-04 11:57 | 53.52714 | 127.09554 | 33466 ft | 496 kts | 353° |
| 2026-05-04 11:57 | 53.59643 | 127.09306 | 33465 ft | 500 kts | 353° |
| 2026-05-04 11:58 | 53.66491 | 127.08563 | 33464 ft | 495 kts | 347° |
| 2026-05-04 11:58 | 53.73219 | 127.06484 | 33464 ft | 489 kts | 340° |
| 2026-05-04 11:59 | 53.79657 | 127.03212 | 33465 ft | 485 kts | 335° |
| 2026-05-04 11:59 | 53.86021 | 126.99564 | 33464 ft | 485 kts | 336° |
| 2026-05-04 12:00 | 53.92387 | 126.95915 | 33464 ft | 486 kts | 336° |
| 2026-05-04 12:00 | 53.98754 | 126.92287 | 33464 ft | 486 kts | 336° |
| 2026-05-04 12:01 | 54.05138 | 126.88649 | 33464 ft | 485 kts | 336° |
| 2026-05-04 12:02 | 54.27480 | 126.75821 | 33464 ft | 485 kts | 336° |
| 2026-05-04 12:03 | 54.33837 | 126.72144 | 33464 ft | 485 kts | 336° |
| 2026-05-04 12:03 | 54.40230 | 126.68433 | 33464 ft | 485 kts | 336° |
| 2026-05-04 12:04 | 54.46593 | 126.64728 | 33464 ft | 485 kts | 336° |
| 2026-05-04 12:04 | 54.52934 | 126.61023 | 33464 ft | 485 kts | 336° |
| 2026-05-04 12:05 | 54.59338 | 126.57269 | 33464 ft | 485 kts | 336° |
| 2026-05-04 12:05 | 54.65683 | 126.53538 | 33464 ft | 485 kts | 336° |
| 2026-05-04 12:06 | 54.72065 | 126.49770 | 33464 ft | 485 kts | 336° |
| 2026-05-04 12:06 | 54.78407 | 126.46014 | 33464 ft | 485 kts | 336° |
| 2026-05-04 12:07 | 54.84756 | 126.42239 | 33464 ft | 485 kts | 336° |
| 2026-05-04 12:07 | 54.91141 | 126.38412 | 33465 ft | 484 kts | 335° |
| 2026-05-04 12:08 | 54.97251 | 126.33897 | 33467 ft | 476 kts | 329° |
| 2026-05-04 12:08 | 55.03158 | 126.28766 | 33466 ft | 472 kts | 329° |
| 2026-05-04 12:09 | 55.08963 | 126.23652 | 33465 ft | 471 kts | 330° |
| 2026-05-04 12:09 | 55.13781 | 126.19415 | 33464 ft | 471 kts | 330° |
| 2026-05-04 12:10 | 55.19632 | 126.14258 | 33464 ft | 471 kts | 330° |
| 2026-05-04 12:10 | 55.25469 | 126.09100 | 33464 ft | 471 kts | 330° |
| 2026-05-04 12:11 | 55.31305 | 126.03925 | 33464 ft | 471 kts | 330° |
| 2026-05-04 12:11 | 55.37131 | 125.98743 | 33464 ft | 471 kts | 330° |
| 2026-05-04 12:12 | 55.42942 | 125.93555 | 33464 ft | 471 kts | 330° |
| 2026-05-04 12:12 | 55.48789 | 125.88319 | 33464 ft | 471 kts | 330° |
| 2026-05-04 12:14 | 55.72059 | 125.67303 | 33464 ft | 471 kts | 330° |
| 2026-05-04 12:15 | 55.77855 | 125.62024 | 33464 ft | 471 kts | 330° |
| 2026-05-04 12:15 | 55.83668 | 125.56712 | 33464 ft | 471 kts | 330° |
| 2026-05-04 12:16 | 55.89454 | 125.51404 | 33468 ft | 471 kts | 330° |
| 2026-05-04 12:16 | 55.95260 | 125.46059 | 33478 ft | 471 kts | 330° |
| 2026-05-04 12:17 | 56.01050 | 125.40709 | 33484 ft | 471 kts | 330° |
| 2026-05-04 12:17 | 56.06654 | 125.34772 | 33487 ft | 467 kts | 321° |
| 2026-05-04 12:18 | 56.11655 | 125.27502 | 33489 ft | 464 kts | 315° |
| 2026-05-04 12:18 | 56.16436 | 125.19810 | 33489 ft | 463 kts | 314° |
| 2026-05-04 12:19 | 56.21153 | 125.12207 | 33157 ft | 449 kts | 314° |
| 2026-05-04 12:19 | 56.23489 | 125.08446 | 32046 ft | 450 kts | 314° |
| 2026-05-04 12:19 | 56.25817 | 125.04685 | 30330 ft | 464 kts | 315° |
| 2026-05-04 12:20 | 56.28200 | 125.00825 | 28505 ft | 475 kts | 315° |
| 2026-05-04 12:20 | 56.30626 | 124.96897 | 27280 ft | 471 kts | 315° |
| 2026-05-04 12:20 | 56.33017 | 124.93034 | 26314 ft | 461 kts | 316° |
| 2026-05-04 12:20 | 56.35478 | 124.89529 | 25531 ft | 451 kts | 329° |
| 2026-05-04 12:21 | 56.38356 | 124.87558 | 24666 ft | 445 kts | 349° |
| 2026-05-04 12:21 | 56.41419 | 124.87492 | 23487 ft | 442 kts | 12° |
| 2026-05-04 12:21 | 56.44259 | 124.89375 | 22569 ft | 430 kts | 29° |
| 2026-05-04 12:21 | 56.46833 | 124.91893 | 21930 ft | 416 kts | 31° |
| 2026-05-04 12:22 | 56.49311 | 124.94364 | 20997 ft | 412 kts | 31° |
| 2026-05-04 12:22 | 56.51819 | 124.96757 | 20093 ft | 407 kts | 30° |
| 2026-05-04 12:22 | 56.54290 | 124.99032 | 19343 ft | 398 kts | 29° |
| 2026-05-04 12:22 | 56.56737 | 125.01386 | 18276 ft | 396 kts | 37° |
| 2026-05-04 12:23 | 56.58752 | 125.04669 | 17191 ft | 392 kts | 55° |
| 2026-05-04 12:23 | 56.60205 | 125.08717 | 16133 ft | 389 kts | 63° |
| 2026-05-04 12:23 | 56.61482 | 125.13007 | 15054 ft | 387 kts | 66° |
| 2026-05-04 12:23 | 56.62629 | 125.17371 | 13982 ft | 386 kts | 68° |
| 2026-05-04 12:24 | 56.63748 | 125.21845 | 12883 ft | 388 kts | 68° |
| 2026-05-04 12:24 | 56.64841 | 125.26299 | 11800 ft | 393 kts | 68° |
| 2026-05-04 12:24 | 56.65939 | 125.30828 | 10723 ft | 397 kts | 68° |
| 2026-05-04 12:24 | 56.67034 | 125.35391 | 9770 ft | 396 kts | 68° |
| 2026-05-04 12:25 | 56.68118 | 125.39940 | 9003 ft | 390 kts | 68° |
| 2026-05-04 12:25 | 56.69189 | 125.44457 | 8260 ft | 385 kts | 68° |
| 2026-05-04 12:25 | 56.70232 | 125.48878 | 7506 ft | 381 kts | 68° |
| 2026-05-04 12:25 | 56.71255 | 125.53243 | 6870 ft | 377 kts | 68° |
| 2026-05-04 12:26 | 56.72281 | 125.57635 | 6537 ft | 376 kts | 68° |
| 2026-05-04 12:26 | 56.73308 | 125.62014 | 6488 ft | 377 kts | 66° |
| 2026-05-04 12:26 | 56.74785 | 125.65980 | 6467 ft | 381 kts | 45° |
| 2026-05-04 12:26 | 56.77018 | 125.68556 | 6486 ft | 386 kts | 23° |
| 2026-05-04 12:27 | 56.79591 | 125.69575 | 6488 ft | 376 kts | 4° |
| 2026-05-04 12:27 | 56.82156 | 125.69048 | 6492 ft | 359 kts | 346° |
| 2026-05-04 12:27 | 56.84354 | 125.67245 | 6497 ft | 342 kts | 328° |
| 2026-05-04 12:27 | 56.86088 | 125.64468 | 6503 ft | 326 kts | 311° |
| 2026-05-04 12:28 | 56.87275 | 125.61047 | 6514 ft | 309 kts | 294° |
| 2026-05-04 12:28 | 56.88000 | 125.57433 | 6495 ft | 295 kts | 289° |
| 2026-05-04 12:28 | 56.88598 | 125.53945 | 6369 ft | 285 kts | 288° |
| 2026-05-04 12:28 | 56.89188 | 125.50482 | 6244 ft | 284 kts | 289° |
| 2026-05-04 12:29 | 56.89792 | 125.47041 | 6119 ft | 283 kts | 289° |
| 2026-05-04 12:29 | 56.90396 | 125.43678 | 5995 ft | 282 kts | 289° |
| 2026-05-04 12:29 | 56.91020 | 125.40249 | 5869 ft | 281 kts | 290° |
| 2026-05-04 12:29 | 56.91631 | 125.36902 | 5773 ft | 279 kts | 290° |
| 2026-05-04 12:30 | 56.92253 | 125.33502 | 5769 ft | 276 kts | 289° |
| 2026-05-04 12:30 | 56.92838 | 125.30300 | 5768 ft | 262 kts | 289° |
| 2026-05-04 12:30 | 56.93602 | 125.27286 | 5756 ft | 258 kts | 313° |
| 2026-05-04 12:30 | 56.95015 | 125.25446 | 5687 ft | 242 kts | 340° |
| 2026-05-04 12:31 | 56.96540 | 125.24408 | 5604 ft | 230 kts | 339° |
| 2026-05-04 12:31 | 56.97740 | 125.22680 | 5551 ft | 216 kts | 302° |
| 2026-05-04 12:31 | 56.97994 | 125.20121 | 5420 ft | 200 kts | 256° |
| 2026-05-04 12:31 | 56.97467 | 125.17921 | 5338 ft | 182 kts | 238° |
| 2026-05-04 12:32 | 56.96823 | 125.15930 | 5130 ft | 179 kts | 238° |
| 2026-05-04 12:32 | 56.95733 | 125.11943 | 4675 ft | 179 kts | 244° |
| 2026-05-04 12:32 | 56.95258 | 125.09870 | 4433 ft | 178 kts | 246° |
| 2026-05-04 12:33 | 56.94799 | 125.07748 | 4210 ft | 177 kts | 246° |
| 2026-05-04 12:33 | 56.94355 | 125.05640 | 3991 ft | 173 kts | 247° |
| 2026-05-04 12:33 | 56.93943 | 125.03656 | 3749 ft | 163 kts | 247° |
| 2026-05-04 12:33 | 56.93545 | 125.01744 | 3534 ft | 162 kts | 247° |
| 2026-05-04 12:34 | 56.93144 | 124.99818 | 3312 ft | 161 kts | 247° |
| 2026-05-04 12:34 | 56.92747 | 124.97913 | 3100 ft | 160 kts | 247° |
| 2026-05-04 12:34 | 56.92346 | 124.95988 | 2887 ft | 160 kts | 247° |
| 2026-05-04 12:34 | 56.91956 | 124.94112 | 2810 ft | 159 kts | 247° |
| 2026-05-04 12:35 | 56.91589 | 124.92342 | 2784 ft | 130 kts | 247° |
| 2026-05-04 12:35 | 56.91321 | 124.91077 | 2784 ft | 81 kts | 249° |
| 2026-05-04 12:35 | 56.91195 | 124.90466 | 2784 ft | 22 kts | 249° |
| 2026-05-04 12:35 | 56.91164 | 124.90329 | 2784 ft | 8 kts | 228° |
| 2026-05-04 12:36 | 56.91108 | 124.90311 | 2784 ft | 8 kts | 176° |
| 2026-05-04 12:36 | 56.91048 | 124.90317 | 2784 ft | 8 kts | 176° |
| 2026-05-04 12:36 | 56.90987 | 124.90317 | 2784 ft | 9 kts | 180° |
| 2026-05-04 12:36 | 56.90916 | 124.90313 | 2784 ft | 11 kts | 182° |
| 2026-05-04 12:37 | 56.90831 | 124.90308 | 2784 ft | 13 kts | 180° |
| 2026-05-04 12:37 | 56.90734 | 124.90311 | 2784 ft | 14 kts | 179° |
| 2026-05-04 12:37 | 56.90627 | 124.90318 | 2784 ft | 15 kts | 177° |
| 2026-05-04 12:37 | 56.90539 | 124.90366 | 2784 ft | 8 kts | 159° |
| 2026-05-04 12:38 | 56.90493 | 124.90382 | 2784 ft | 6 kts | 196° |
| 2026-05-04 12:38 | 56.90483 | 124.90350 | 2784 ft | 2 kts | 258° |
| 2026-05-04 12:38 | 56.90477 | 124.90321 | 2784 ft | 0 kts | 251° |
| 2026-05-04 12:38 | 56.90476 | 124.90312 | 2784 ft | 1 kts | 250° |
| 2026-05-04 12:39 | 56.90475 | 124.90309 | 2784 ft | 0 kts | 250° |